Time;durP1;ratioP1;P1;durP2;ratioP2;P2;SDS_P1;SDS_P2;PMS_P1;PMS_P2;Temp;Humidity;BMP_temperature;BMP_pressure;BME280_temperature;BME280_humidity;BME280_pressure;Samples;Min_cycle;Max_cycle;Signal;HPM_P1;HPM_P2
2024/02/02 00:02:13;;;;;;;;;;;2.20;100.00;;;;;;5043422;28;19936;-70
2024/02/02 00:04:39;;;;;;;;;;;2.20;100.00;;;;;;5043982;28;20648;-70
2024/02/02 00:07:06;;;;;;;;;;;2.20;100.00;;;;;;5039266;28;20584;-70
2024/02/02 00:09:33;;;;;;;;;;;2.20;100.00;;;;;;5043815;28;19929;-70
2024/02/02 00:12:00;;;;;;;;;;;2.20;100.00;;;;;;5028329;28;19929;-70
2024/02/02 00:14:27;;;;;;;;;;;2.20;100.00;;;;;;5044813;28;19933;-71
2024/02/02 00:16:54;;;;;;;;;;;2.30;100.00;;;;;;5029741;28;20025;-70
2024/02/02 00:19:21;;;;;;;;;;;2.30;100.00;;;;;;5044550;28;19968;-70
2024/02/02 00:21:48;;;;;;;;;;;2.30;100.00;;;;;;5056123;28;19928;-70
2024/02/02 00:24:15;;;;;;;;;;;2.30;100.00;;;;;;5044398;28;19980;-70
2024/02/02 00:26:42;;;;;;;;;;;2.40;100.00;;;;;;5059821;28;19928;-70
2024/02/02 00:29:08;;;;;;;;;;;2.40;100.00;;;;;;5026492;28;19960;-70
2024/02/02 00:31:35;;;;;;;;;;;2.40;100.00;;;;;;5043047;28;20366;-70
2024/02/02 00:34:02;;;;;;;;;;;2.50;100.00;;;;;;5044521;28;20351;-70
2024/02/02 00:36:29;;;;;;;;;;;2.50;100.00;;;;;;5026297;28;20017;-70
2024/02/02 00:38:56;;;;;;;;;;;2.50;100.00;;;;;;5044180;28;19958;-71
2024/02/02 00:41:22;;;;;;;;;;;2.60;100.00;;;;;;5044652;28;20025;-70
2024/02/02 00:43:49;;;;;;;;;;;2.60;100.00;;;;;;5043970;28;19928;-70
2024/02/02 00:46:16;;;;;;;;;;;2.60;100.00;;;;;;5043137;28;20013;-70
2024/02/02 00:48:43;;;;;;;;;;;2.60;100.00;;;;;;5043982;28;20008;-70
2024/02/02 00:51:10;;;;;;;;;;;2.70;100.00;;;;;;5026584;28;20020;-70
2024/02/02 00:53:36;;;;;;;;;;;2.70;100.00;;;;;;5044172;28;20745;-70
2024/02/02 00:56:03;;;;;;;;;;;2.80;100.00;;;;;;5026633;28;19928;-70
2024/02/02 00:58:30;;;;;;;;;;;2.80;100.00;;;;;;5038850;28;20446;-70
2024/02/02 01:00:57;;;;;;;;;;;2.90;100.00;;;;;;5043737;28;20270;-70
2024/02/02 01:03:24;;;;;;;;;;;2.90;100.00;;;;;;5043058;28;20401;-70
2024/02/02 01:05:51;;;;;;;;;;;3.00;100.00;;;;;;5039921;28;20000;-70
2024/02/02 01:08:18;;;;;;;;;;;3.00;100.00;;;;;;5029189;28;19928;-71
2024/02/02 01:10:45;;;;;;;;;;;3.00;100.00;;;;;;5026595;28;19932;-70
2024/02/02 01:13:11;;;;;;;;;;;3.00;100.00;;;;;;5044158;28;20019;-70
2024/02/02 01:15:38;;;;;;;;;;;3.00;100.00;;;;;;5044630;28;19960;-70
2024/02/02 01:18:07;;;;;;;;;;;3.00;100.00;;;;;;5026682;28;19928;-70
2024/02/02 01:20:35;;;;;;;;;;;3.00;100.00;;;;;;5038078;28;19972;-70
2024/02/02 01:23:02;;;;;;;;;;;3.10;100.00;;;;;;5025743;28;20010;-71
2024/02/02 01:25:29;;;;;;;;;;;3.20;100.00;;;;;;5046835;28;19979;-71
2024/02/02 01:27:56;;;;;;;;;;;3.20;100.00;;;;;;5040174;28;20440;-71
2024/02/02 01:30:23;;;;;;;;;;;3.30;100.00;;;;;;5046521;28;20002;-71
2024/02/02 01:32:50;;;;;;;;;;;3.30;100.00;;;;;;5047961;28;20392;-70
2024/02/02 01:35:17;;;;;;;;;;;3.30;100.00;;;;;;5047172;28;20392;-71
2024/02/02 01:37:44;;;;;;;;;;;3.40;100.00;;;;;;5047385;28;20003;-71
2024/02/02 01:40:13;;;;;;;;;;;3.40;100.00;;;;;;5047203;28;19960;-71
2024/02/02 01:42:40;;;;;;;;;;;3.40;100.00;;;;;;5029493;28;19928;-70
2024/02/02 01:45:07;;;;;;;;;;;3.50;100.00;;;;;;5061754;28;19928;-70
2024/02/02 01:47:34;;;;;;;;;;;3.50;100.00;;;;;;5039737;28;19928;-70
2024/02/02 01:50:02;;;;;;;;;;;3.50;100.00;;;;;;5046398;28;20027;-70
2024/02/02 01:52:29;;;;;;;;;;;3.60;100.00;;;;;;5047448;28;19928;-70
2024/02/02 01:54:56;;;;;;;;;;;3.60;100.00;;;;;;5047553;28;19979;-70
2024/02/02 01:57:23;;;;;;;;;;;3.60;100.00;;;;;;5046967;28;20655;-70
2024/02/02 01:59:50;;;;;;;;;;;3.60;100.00;;;;;;5046714;28;19928;-70
2024/02/02 02:02:17;;;;;;;;;;;3.60;100.00;;;;;;5038829;28;19933;-70
2024/02/02 02:04:44;;;;;;;;;;;3.70;100.00;;;;;;5047391;28;19931;-70
2024/02/02 02:07:10;;;;;;;;;;;3.70;100.00;;;;;;5047060;28;19925;-71
2024/02/02 02:09:37;;;;;;;;;;;3.70;100.00;;;;;;5038271;28;20028;-71
2024/02/02 02:12:04;;;;;;;;;;;3.70;100.00;;;;;;5046891;28;20442;-71
2024/02/02 02:14:31;;;;;;;;;;;3.80;100.00;;;;;;5045489;28;20304;-71
2024/02/02 02:16:58;;;;;;;;;;;3.80;100.00;;;;;;5047091;28;19933;-71
2024/02/02 02:19:25;;;;;;;;;;;3.80;100.00;;;;;;5046734;28;19976;-71
2024/02/02 02:21:52;;;;;;;;;;;3.80;100.00;;;;;;5046502;28;20006;-71
2024/02/02 02:24:19;;;;;;;;;;;3.90;100.00;;;;;;5043713;28;19968;-71
2024/02/02 02:26:46;;;;;;;;;;;3.90;100.00;;;;;;5031090;28;19929;-71
2024/02/02 02:29:13;;;;;;;;;;;3.90;100.00;;;;;;5065368;28;19937;-71
2024/02/02 02:31:40;;;;;;;;;;;3.90;100.00;;;;;;5047023;28;20003;-71
2024/02/02 02:34:07;;;;;;;;;;;3.90;100.00;;;;;;5026611;28;20043;-71
2024/02/02 02:36:34;;;;;;;;;;;3.90;100.00;;;;;;5036342;28;19924;-71
2024/02/02 02:39:01;;;;;;;;;;;3.90;100.00;;;;;;5046601;28;20012;-72
2024/02/02 02:41:28;;;;;;;;;;;3.90;100.00;;;;;;5048121;28;19932;-71
2024/02/02 02:43:57;;;;;;;;;;;3.90;100.00;;;;;;5045602;28;20078;-71
2024/02/02 02:46:24;;;;;;;;;;;3.90;100.00;;;;;;5061682;28;19928;-71
2024/02/02 02:48:50;;;;;;;;;;;3.90;100.00;;;;;;5046283;28;19979;-71
2024/02/02 02:51:18;;;;;;;;;;;3.90;100.00;;;;;;5034947;28;20015;-71
2024/02/02 02:53:45;;;;;;;;;;;3.90;100.00;;;;;;5045907;28;19929;-71
2024/02/02 02:56:12;;;;;;;;;;;3.90;100.00;;;;;;5045038;28;19975;-71
2024/02/02 02:58:38;;;;;;;;;;;3.90;100.00;;;;;;5034049;28;19932;-71
2024/02/02 03:01:05;;;;;;;;;;;3.90;100.00;;;;;;5045715;28;19929;-71
2024/02/02 03:03:32;;;;;;;;;;;3.90;100.00;;;;;;5023937;28;19929;-71
2024/02/02 03:05:59;;;;;;;;;;;3.90;100.00;;;;;;5035513;28;19928;-71
2024/02/02 03:08:26;;;;;;;;;;;3.90;100.00;;;;;;5044439;28;19937;-71
2024/02/02 03:10:53;;;;;;;;;;;3.90;100.00;;;;;;5045749;28;19976;-71
2024/02/02 03:13:20;;;;;;;;;;;3.90;100.00;;;;;;5046214;28;19936;-71
2024/02/02 03:15:47;;;;;;;;;;;3.90;100.00;;;;;;5046304;28;19937;-71
2024/02/02 03:18:14;;;;;;;;;;;3.90;100.00;;;;;;5036332;28;19933;-71
2024/02/02 03:20:41;;;;;;;;;;;3.90;100.00;;;;;;5028058;28;19975;-71
2024/02/02 03:23:08;;;;;;;;;;;3.90;100.00;;;;;;5028044;28;19929;-71
2024/02/02 03:25:35;;;;;;;;;;;3.90;100.00;;;;;;5041575;28;19932;-71
2024/02/02 03:28:03;;;;;;;;;;;3.90;100.00;;;;;;5045129;28;19929;-71
2024/02/02 03:30:30;;;;;;;;;;;3.90;100.00;;;;;;5045102;28;20038;-71
2024/02/02 03:32:57;;;;;;;;;;;3.90;100.00;;;;;;5034204;28;20115;-71
2024/02/02 03:35:24;;;;;;;;;;;3.90;100.00;;;;;;5042738;28;19933;-71
2024/02/02 03:37:51;;;;;;;;;;;3.90;100.00;;;;;;5045694;28;20282;-71
2024/02/02 03:40:18;;;;;;;;;;;4.00;100.00;;;;;;5027750;28;19986;-71
2024/02/02 03:42:45;;;;;;;;;;;4.00;100.00;;;;;;5045332;28;20019;-71
2024/02/02 03:45:12;;;;;;;;;;;4.00;100.00;;;;;;5053416;28;19929;-71
2024/02/02 03:47:39;;;;;;;;;;;4.00;100.00;;;;;;5060322;28;19933;-71
2024/02/02 03:50:06;;;;;;;;;;;4.00;100.00;;;;;;5027432;28;19929;-71
2024/02/02 03:52:33;;;;;;;;;;;4.00;100.00;;;;;;5045699;28;19929;-71
2024/02/02 03:54:59;;;;;;;;;;;4.00;100.00;;;;;;5028022;28;19939;-71
2024/02/02 03:57:26;;;;;;;;;;;4.00;100.00;;;;;;5044904;28;19933;-71
2024/02/02 03:59:53;;;;;;;;;;;4.00;100.00;;;;;;5045251;28;19975;-71
2024/02/02 04:02:20;;;;;;;;;;;4.00;100.00;;;;;;5043894;28;19928;-71
2024/02/02 04:04:47;;;;;;;;;;;4.00;100.00;;;;;;5044996;28;19928;-70
2024/02/02 04:07:13;;;;;;;;;;;4.00;100.00;;;;;;5045114;28;20405;-71
2024/02/02 04:09:40;;;;;;;;;;;3.90;100.00;;;;;;5043586;28;19974;-71
2024/02/02 04:12:07;;;;;;;;;;;3.90;100.00;;;;;;5044324;28;20537;-71
2024/02/02 04:14:34;;;;;;;;;;;4.00;100.00;;;;;;5043925;28;20399;-71
2024/02/02 04:17:01;;;;;;;;;;;4.00;100.00;;;;;;5028035;28;19994;-71
2024/02/02 04:19:28;;;;;;;;;;;4.00;100.00;;;;;;5060309;28;20292;-71
2024/02/02 04:21:55;;;;;;;;;;;4.00;100.00;;;;;;5045059;28;19929;-71
2024/02/02 04:24:22;;;;;;;;;;;4.00;100.00;;;;;;5032702;28;19960;-71
2024/02/02 04:26:49;;;;;;;;;;;4.00;100.00;;;;;;5060329;28;19935;-71
2024/02/02 04:29:16;;;;;;;;;;;4.00;100.00;;;;;;5042425;28;19971;-71
2024/02/02 04:31:43;;;;;;;;;;;4.00;100.00;;;;;;5044883;28;20764;-71
2024/02/02 04:34:09;;;;;;;;;;;4.00;100.00;;;;;;5043602;28;20445;-71
2024/02/02 04:39:13;;;;;;;;;;;4.00;100.00;;;;;;4999883;28;20341;-71
2024/02/02 04:41:40;;;;;;;;;;;4.00;100.00;;;;;;5004994;28;19930;-71
2024/02/02 04:44:07;;;;;;;;;;;4.00;100.00;;;;;;5011724;28;19935;-71
2024/02/02 04:46:34;;;;;;;;;;;4.00;100.00;;;;;;5004352;28;19930;-71
2024/02/02 04:49:01;;;;;;;;;;;4.00;100.00;;;;;;5004205;28;19930;-71
2024/02/02 04:51:28;;;;;;;;;;;4.00;100.00;;;;;;5005473;28;20404;-71
2024/02/02 04:53:55;;;;;;;;;;;4.00;100.00;;;;;;4995856;28;20389;-71
2024/02/02 04:56:22;;;;;;;;;;;4.00;100.00;;;;;;4995636;28;19930;-71
2024/02/02 04:58:51;;;;;;;;;;;4.00;100.00;;;;;;5005377;28;19943;-71
2024/02/02 05:01:21;;;;;;;;;;;4.00;100.00;;;;;;5009413;28;20024;-71
2024/02/02 05:03:48;;;;;;;;;;;4.00;100.00;;;;;;5008625;28;19933;-71
2024/02/02 05:06:16;;;;;;;;;;;4.00;100.00;;;;;;5008818;28;19929;-71
2024/02/02 05:08:46;;;;;;;;;;;4.00;100.00;;;;;;5008148;28;19930;-72
2024/02/02 05:11:13;;;;;;;;;;;4.00;100.00;;;;;;5008768;28;19937;-71
2024/02/02 05:13:40;;;;;;;;;;;4.10;100.00;;;;;;4999213;28;19936;-72
2024/02/02 05:16:07;;;;;;;;;;;4.10;100.00;;;;;;5009035;28;19933;-72
2024/02/02 05:18:35;;;;;;;;;;;4.00;100.00;;;;;;5000655;28;19936;-72
2024/02/02 05:21:02;;;;;;;;;;;4.10;100.00;;;;;;5008584;28;19930;-72
2024/02/02 05:23:29;;;;;;;;;;;4.10;100.00;;;;;;5009096;28;19936;-72
2024/02/02 05:25:56;;;;;;;;;;;4.10;100.00;;;;;;5008943;28;20074;-72
2024/02/02 05:28:23;;;;;;;;;;;4.10;100.00;;;;;;5008626;28;19929;-72
2024/02/02 05:30:50;;;;;;;;;;;4.10;100.00;;;;;;5021952;28;19930;-72
2024/02/02 05:33:17;;;;;;;;;;;4.10;100.00;;;;;;5007678;28;20814;-72
2024/02/02 05:35:44;;;;;;;;;;;4.10;100.00;;;;;;5008085;28;20389;-72
2024/02/02 05:38:11;;;;;;;;;;;4.10;100.00;;;;;;4998798;28;20595;-72
2024/02/02 05:40:37;;;;;;;;;;;4.10;100.00;;;;;;4999320;28;20323;-72
2024/02/02 05:43:05;;;;;;;;;;;4.20;100.00;;;;;;5008447;28;19930;-71
2024/02/02 05:45:32;;;;;;;;;;;4.20;100.00;;;;;;4998913;28;19951;-71
2024/02/02 05:47:59;;;;;;;;;;;4.20;100.00;;;;;;5008427;28;19952;-69
2024/02/02 05:50:28;;;;;;;;;;;4.20;100.00;;;;;;4998959;28;19929;-70
2024/02/02 05:52:55;;;;;;;;;;;4.20;100.00;;;;;;4998413;28;19930;-71
2024/02/02 05:55:22;;;;;;;;;;;4.20;100.00;;;;;;5018397;28;19992;-72
2024/02/02 05:57:49;;;;;;;;;;;4.20;100.00;;;;;;5008638;28;20022;-71
2024/02/02 06:00:18;;;;;;;;;;;4.20;100.00;;;;;;5008578;28;19976;-75
2024/02/02 06:02:46;;;;;;;;;;;4.20;100.00;;;;;;5008321;28;20012;-71
2024/02/02 06:05:13;;;;;;;;;;;4.20;100.00;;;;;;5007065;28;20016;-72
2024/02/02 06:07:40;;;;;;;;;;;4.20;100.00;;;;;;4998382;28;19929;-76
2024/02/02 06:10:07;;;;;;;;;;;4.20;100.00;;;;;;4998310;28;19937;-73
2024/02/02 06:12:36;;;;;;;;;;;4.20;100.00;;;;;;5007358;28;20468;-69
2024/02/02 06:15:06;;;;;;;;;;;4.10;100.00;;;;;;4982220;28;19988;-72
2024/02/02 06:17:34;;;;;;;;;;;4.10;100.00;;;;;;5007754;28;20318;-71
2024/02/02 06:20:01;;;;;;;;;;;4.10;100.00;;;;;;5007864;28;19947;-71
2024/02/02 06:22:28;;;;;;;;;;;4.10;100.00;;;;;;5007620;28;20059;-71
2024/02/02 06:24:54;;;;;;;;;;;4.10;100.00;;;;;;5008270;28;19969;-72
2024/02/02 06:27:22;;;;;;;;;;;4.10;100.00;;;;;;5007131;28;20015;-72
2024/02/02 06:29:50;;;;;;;;;;;4.10;100.00;;;;;;5005786;28;19936;-72
2024/02/02 06:32:20;;;;;;;;;;;4.10;100.00;;;;;;5005902;28;19929;-72
2024/02/02 06:34:48;;;;;;;;;;;4.10;100.00;;;;;;5006952;28;19933;-72
2024/02/02 06:37:18;;;;;;;;;;;4.10;100.00;;;;;;5007102;28;19930;-73
2024/02/02 06:39:47;;;;;;;;;;;4.00;100.00;;;;;;5007646;28;19961;-73
2024/02/02 06:42:16;;;;;;;;;;;4.00;100.00;;;;;;5007330;28;19936;-73
2024/02/02 06:44:43;;;;;;;;;;;4.00;100.00;;;;;;4997721;28;19929;-73
2024/02/02 06:47:10;;;;;;;;;;;4.00;100.00;;;;;;5006009;28;19933;-73
2024/02/02 06:49:37;;;;;;;;;;;4.00;100.00;;;;;;5003042;28;19929;-73
2024/02/02 06:52:04;;;;;;;;;;;4.00;100.00;;;;;;4997108;28;19929;-73
2024/02/02 06:54:31;;;;;;;;;;;4.00;100.00;;;;;;5006618;28;19930;-73
2024/02/02 06:56:57;;;;;;;;;;;4.10;100.00;;;;;;5006858;28;19937;-73
2024/02/02 06:59:24;;;;;;;;;;;4.10;100.00;;;;;;5006726;28;19929;-73
2024/02/02 07:01:51;;;;;;;;;;;4.10;100.00;;;;;;5006825;28;19929;-72
2024/02/02 07:04:18;;;;;;;;;;;4.10;100.00;;;;;;5004682;28;19965;-72
2024/02/02 07:06:46;;;;;;;;;;;4.10;100.00;;;;;;5006871;28;19976;-73
2024/02/02 07:09:20;;;;;;;;;;;4.10;100.00;;;;;;5007019;28;19933;-73
2024/02/02 07:11:58;;;;;;;;;;;4.10;100.00;;;;;;5005787;28;20044;-73
2024/02/02 07:14:44;;;;;;;;;;;4.10;100.00;;;;;;5005634;28;19929;-73
2024/02/02 07:17:14;;;;;;;;;;;4.10;100.00;;;;;;5005564;28;19929;-73
2024/02/02 07:19:42;;;;;;;;;;;4.20;100.00;;;;;;5005685;28;19969;-73
2024/02/02 07:22:39;;;;;;;;;;;4.10;100.00;;;;;;4995743;28;20007;-73
2024/02/02 07:25:06;;;;;;;;;;;4.10;100.00;;;;;;4999766;28;20405;-73
2024/02/02 07:27:51;;;;;;;;;;;4.20;100.00;;;;;;5006727;28;19965;-71
2024/02/02 07:30:36;;;;;;;;;;;4.20;100.00;;;;;;5006798;28;19953;-73
2024/02/02 07:33:13;;;;;;;;;;;4.10;100.00;;;;;;4997284;28;19930;-73
2024/02/02 07:35:40;;;;;;;;;;;4.10;100.00;;;;;;4999431;28;19967;-73
2024/02/02 07:38:07;;;;;;;;;;;4.10;100.00;;;;;;5006216;28;20633;-73
2024/02/02 07:40:53;;;;;;;;;;;4.10;100.00;;;;;;4996762;28;20334;-73
2024/02/02 07:43:20;;;;;;;;;;;4.10;100.00;;;;;;5006309;28;20008;-74
2024/02/02 07:45:47;;;;;;;;;;;4.10;100.00;;;;;;5006411;28;20747;-74
2024/02/02 07:48:13;;;;;;;;;;;4.10;100.00;;;;;;4997141;28;19933;-75
2024/02/02 07:50:40;;;;;;;;;;;4.10;100.00;;;;;;5006669;28;19952;-72
2024/02/02 07:53:07;;;;;;;;;;;4.10;100.00;;;;;;5006070;28;19937;-74
2024/02/02 07:55:34;;;;;;;;;;;4.10;100.00;;;;;;5005880;28;20653;-74
2024/02/02 07:58:01;;;;;;;;;;;4.10;100.00;;;;;;4996178;28;20351;-74
2024/02/02 08:00:30;;;;;;;;;;;4.10;100.00;;;;;;4997009;28;19933;-74
2024/02/02 08:02:57;;;;;;;;;;;4.10;100.00;;;;;;5006345;28;20359;-74
2024/02/02 08:05:27;;;;;;;;;;;4.10;100.00;;;;;;4996598;28;19937;-74
2024/02/02 08:07:54;;;;;;;;;;;4.10;100.00;;;;;;5005799;28;20070;-74
2024/02/02 08:10:20;;;;;;;;;;;4.10;100.00;;;;;;5005319;28;19929;-74
2024/02/02 08:12:47;;;;;;;;;;;4.10;100.00;;;;;;4995459;28;19929;-74
2024/02/02 08:15:14;;;;;;;;;;;4.10;100.00;;;;;;5005093;28;20107;-74
2024/02/02 08:17:41;;;;;;;;;;;4.10;100.00;;;;;;5000757;28;19930;-74
2024/02/02 08:20:08;;;;;;;;;;;4.10;100.00;;;;;;4995306;28;20378;-74
2024/02/02 08:22:35;;;;;;;;;;;4.10;100.00;;;;;;5005428;28;19937;-74
2024/02/02 08:25:02;;;;;;;;;;;4.10;100.00;;;;;;5004688;28;19964;-73
2024/02/02 08:27:29;;;;;;;;;;;4.10;100.00;;;;;;5004377;28;20375;-73
2024/02/02 08:29:56;;;;;;;;;;;4.10;100.00;;;;;;5004564;28;19929;-73
2024/02/02 08:32:22;;;;;;;;;;;4.20;100.00;;;;;;5005036;28;20326;-73
2024/02/02 08:34:49;;;;;;;;;;;4.20;100.00;;;;;;4995615;28;19937;-73
2024/02/02 08:37:16;;;;;;;;;;;4.20;100.00;;;;;;5005057;28;20033;-73
2024/02/02 08:39:44;;;;;;;;;;;4.20;100.00;;;;;;5005196;28;19929;-73
2024/02/02 08:42:16;;;;;;;;;;;4.20;100.00;;;;;;5005272;28;19991;-73
2024/02/02 08:44:43;;;;;;;;;;;4.20;100.00;;;;;;4997560;28;19930;-71
2024/02/02 08:47:10;;;;;;;;;;;4.20;100.00;;;;;;5001990;28;19983;-72
2024/02/02 08:49:55;;;;;;;;;;;4.20;100.00;;;;;;5003321;28;19929;-71
2024/02/02 08:52:31;;;;;;;;;;;4.20;100.00;;;;;;5003638;28;20011;-71
2024/02/02 08:54:59;;;;;;;;;;;4.30;100.00;;;;;;4994724;28;19963;-72
2024/02/02 08:57:29;;;;;;;;;;;4.30;100.00;;;;;;5003720;28;20401;-72
2024/02/02 09:00:04;;;;;;;;;;;4.30;100.00;;;;;;5005230;28;19937;-72
2024/02/02 09:02:37;;;;;;;;;;;4.30;100.00;;;;;;5004526;28;19925;-72
2024/02/02 09:05:10;;;;;;;;;;;4.30;100.00;;;;;;5004644;28;19937;-71
2024/02/02 09:07:37;;;;;;;;;;;4.40;100.00;;;;;;4996836;28;20688;-71
2024/02/02 09:10:21;;;;;;;;;;;4.30;100.00;;;;;;5005486;28;19968;-72
2024/02/02 09:12:50;;;;;;;;;;;4.30;100.00;;;;;;5013561;28;19930;-72
2024/02/02 09:15:18;;;;;;;;;;;4.30;100.00;;;;;;5005594;28;19976;-71
2024/02/02 09:17:45;;;;;;;;;;;4.30;100.00;;;;;;5005782;28;19937;-72
2024/02/02 09:20:20;;;;;;;;;;;4.40;100.00;;;;;;5005677;28;20734;-72
2024/02/02 09:22:48;;;;;;;;;;;4.30;100.00;;;;;;4995994;28;20575;-72
2024/02/02 09:25:20;;;;;;;;;;;4.40;100.00;;;;;;5005197;28;20574;-72
2024/02/02 09:27:47;;;;;;;;;;;4.40;100.00;;;;;;5005182;28;20434;-72
2024/02/02 09:30:20;;;;;;;;;;;4.40;100.00;;;;;;5005749;28;19933;-71
2024/02/02 09:32:47;;;;;;;;;;;4.40;100.00;;;;;;4996416;28;19929;-72
2024/02/02 09:35:37;;;;;;;;;;;4.40;100.00;;;;;;5005161;28;19937;-72
2024/02/02 09:38:04;;;;;;;;;;;4.40;100.00;;;;;;4999235;28;19925;-72
2024/02/02 09:40:37;;;;;;;;;;;4.50;100.00;;;;;;5005181;28;20027;-72
2024/02/02 09:43:13;;;;;;;;;;;4.50;100.00;;;;;;4994568;28;20031;-72
2024/02/02 09:45:50;;;;;;;;;;;4.50;100.00;;;;;;4998831;28;20397;-71
2024/02/02 09:48:19;;;;;;;;;;;4.50;100.00;;;;;;5008309;28;20012;-71
2024/02/02 09:51:07;;;;;;;;;;;4.60;100.00;;;;;;5008366;28;19999;-71
2024/02/02 09:53:34;;;;;;;;;;;4.60;100.00;;;;;;5008731;28;19935;-71
2024/02/02 09:56:01;;;;;;;;;;;4.60;100.00;;;;;;5000580;28;19925;-71
2024/02/02 09:58:33;;;;;;;;;;;4.60;100.00;;;;;;5008553;28;20002;-71
2024/02/02 10:01:02;;;;;;;;;;;4.60;100.00;;;;;;5008473;28;20591;-71
2024/02/02 10:03:49;;;;;;;;;;;4.60;100.00;;;;;;4998933;28;19930;-71
2024/02/02 10:06:35;;;;;;;;;;;4.60;100.00;;;;;;4998533;28;19936;-71
2024/02/02 10:09:16;;;;;;;;;;;4.50;100.00;;;;;;5007776;28;20507;-71
2024/02/02 10:12:01;;;;;;;;;;;4.50;100.00;;;;;;4991441;28;20580;-71
2024/02/02 10:14:31;;;;;;;;;;;4.50;100.00;;;;;;5008110;28;20135;-70
2024/02/02 10:17:04;;;;;;;;;;;4.50;100.00;;;;;;4997891;28;19976;-70
2024/02/02 10:19:31;;;;;;;;;;;4.50;100.00;;;;;;5007463;28;19925;-70
2024/02/02 10:22:16;;;;;;;;;;;4.50;100.00;;;;;;4998083;28;20373;-70
2024/02/02 10:25:01;;;;;;;;;;;4.50;100.00;;;;;;5007597;28;19973;-70
2024/02/02 10:27:38;;;;;;;;;;;4.50;100.00;;;;;;5007824;28;19929;-70
2024/02/02 10:30:06;;;;;;;;;;;4.50;100.00;;;;;;5007318;28;19929;-71
2024/02/02 10:32:36;;;;;;;;;;;4.50;100.00;;;;;;5007450;28;19935;-70
2024/02/02 10:35:06;;;;;;;;;;;4.50;100.00;;;;;;5003842;28;19937;-70
2024/02/02 10:37:37;;;;;;;;;;;4.50;100.00;;;;;;4997836;28;19980;-70
2024/02/02 10:40:27;;;;;;;;;;;4.50;100.00;;;;;;4997525;28;19929;-71
2024/02/02 10:42:57;;;;;;;;;;;4.50;100.00;;;;;;5000964;28;19940;-71
2024/02/02 10:45:34;;;;;;;;;;;4.50;100.00;;;;;;5005848;28;19983;-70
2024/02/02 10:48:04;;;;;;;;;;;4.50;100.00;;;;;;5007436;28;20048;-70
2024/02/02 10:50:31;;;;;;;;;;;4.50;100.00;;;;;;4997877;28;20037;-71
2024/02/02 10:53:16;;;;;;;;;;;4.50;100.00;;;;;;5007153;28;19987;-71
2024/02/02 10:56:22;;;;;;;;;;;4.50;100.00;;;;;;4999810;28;20473;-71
2024/02/02 10:58:52;;;;;;;;;;;4.50;100.00;;;;;;4936156;28;19930;-71
2024/02/02 11:01:32;;;;;;;;;;;4.50;100.00;;;;;;4939929;28;19969;-71
2024/02/02 11:04:22;;;;;;;;;;;4.50;100.00;;;;;;4984979;28;19984;-71
2024/02/02 11:06:58;;;;;;;;;;;4.50;100.00;;;;;;4992675;28;19934;-71
2024/02/02 11:09:34;;;;;;;;;;;4.50;100.00;;;;;;5006637;28;20008;-71
2024/02/02 11:12:27;;;;;;;;;;;4.50;100.00;;;;;;5006906;28;19934;-71
2024/02/02 11:14:58;;;;;;;;;;;4.50;100.00;;;;;;4977104;28;19929;-71
2024/02/02 11:17:33;;;;;;;;;;;4.60;100.00;;;;;;5006596;28;19929;-72
2024/02/02 11:20:15;;;;;;;;;;;4.50;100.00;;;;;;4997147;28;19933;-71
2024/02/02 11:22:55;;;;;;;;;;;4.50;100.00;;;;;;5006284;28;19957;-71
2024/02/02 11:25:54;;;;;;;;;;;4.50;100.00;;;;;;5006643;28;20039;-71
2024/02/02 11:28:27;;;;;;;;;;;4.50;100.00;;;;;;4975550;28;20017;-71
2024/02/02 11:31:07;;;;;;;;;;;4.50;100.00;;;;;;5006217;28;20663;-71
2024/02/02 11:33:50;;;;;;;;;;;4.50;100.00;;;;;;5006323;28;20029;-71
2024/02/02 11:36:23;;;;;;;;;;;4.60;100.00;;;;;;5006100;28;19937;-71
2024/02/02 11:38:59;;;;;;;;;;;4.60;100.00;;;;;;5006107;28;20566;-71
2024/02/02 11:41:27;;;;;;;;;;;4.60;100.00;;;;;;5006001;28;19940;-71
2024/02/02 11:43:55;;;;;;;;;;;4.70;100.00;;;;;;5006289;28;19929;-71
2024/02/02 11:46:25;;;;;;;;;;;4.60;100.00;;;;;;5003860;28;19937;-71
2024/02/02 11:49:01;;;;;;;;;;;4.70;100.00;;;;;;4989846;28;19929;-71
2024/02/02 11:51:28;;;;;;;;;;;4.70;100.00;;;;;;4993877;28;19933;-71
2024/02/02 11:54:00;;;;;;;;;;;4.70;100.00;;;;;;5004501;28;19952;-71
2024/02/02 11:56:30;;;;;;;;;;;4.80;100.00;;;;;;5004745;28;19929;-70
2024/02/02 11:59:04;;;;;;;;;;;4.80;100.00;;;;;;5005002;28;20412;-71
2024/02/02 12:01:45;;;;;;;;;;;4.80;100.00;;;;;;5004672;28;20033;-71
2024/02/02 12:04:16;;;;;;;;;;;4.80;100.00;;;;;;4996002;28;19937;-71
2024/02/02 12:06:48;;;;;;;;;;;4.80;100.00;;;;;;4997787;28;19933;-71
2024/02/02 12:09:27;;;;;;;;;;;4.80;100.00;;;;;;5005546;28;19940;-71
2024/02/02 12:11:54;;;;;;;;;;;4.80;100.00;;;;;;5005795;28;20501;-71
2024/02/02 12:14:25;;;;;;;;;;;4.80;100.00;;;;;;5006130;28;19933;-71
2024/02/02 12:16:52;;;;;;;;;;;4.80;100.00;;;;;;5005460;28;20528;-71
2024/02/02 12:19:19;;;;;;;;;;;4.90;100.00;;;;;;5005526;28;20390;-71
2024/02/02 12:21:47;;;;;;;;;;;4.90;100.00;;;;;;5005572;28;19929;-71
2024/02/02 12:24:16;;;;;;;;;;;4.90;100.00;;;;;;5005580;28;19933;-71
2024/02/02 12:26:46;;;;;;;;;;;4.90;100.00;;;;;;5005243;28;20559;-71
2024/02/02 12:29:15;;;;;;;;;;;4.90;100.00;;;;;;5005810;28;19952;-71
2024/02/02 12:31:42;;;;;;;;;;;5.00;100.00;;;;;;4996005;28;20023;-71
2024/02/02 12:34:09;;;;;;;;;;;5.00;100.00;;;;;;5006173;28;19930;-71
2024/02/02 12:36:36;;;;;;;;;;;5.00;100.00;;;;;;5005550;28;20009;-71
2024/02/02 12:39:05;;;;;;;;;;;5.00;100.00;;;;;;5005447;28;19936;-70
2024/02/02 12:41:35;;;;;;;;;;;5.00;100.00;;;;;;4995048;28;19936;-71
2024/02/02 12:44:04;;;;;;;;;;;5.00;100.00;;;;;;4996832;28;20348;-71
2024/02/02 12:46:41;;;;;;;;;;;5.00;100.00;;;;;;5005527;28;19929;-71
2024/02/02 12:49:11;;;;;;;;;;;5.00;100.00;;;;;;5005327;28;19937;-72
2024/02/02 12:51:39;;;;;;;;;;;5.00;100.00;;;;;;5005059;28;19930;-72
2024/02/02 12:54:08;;;;;;;;;;;5.00;100.00;;;;;;5005858;28;20492;-72
2024/02/02 12:56:36;;;;;;;;;;;5.00;100.00;;;;;;5005648;28;19929;-72
2024/02/02 12:59:05;;;;;;;;;;;5.00;100.00;;;;;;4995899;28;19984;-72
2024/02/02 13:01:32;;;;;;;;;;;5.00;100.00;;;;;;5001538;28;19981;-72
2024/02/02 13:03:59;;;;;;;;;;;5.00;100.00;;;;;;4995592;28;19930;-72
2024/02/02 13:06:27;;;;;;;;;;;5.00;100.00;;;;;;4996189;28;20040;-72
2024/02/02 13:09:12;;;;;;;;;;;5.00;100.00;;;;;;5005662;28;19936;-72
2024/02/02 13:11:42;;;;;;;;;;;5.00;100.00;;;;;;4995885;28;19929;-72
2024/02/02 13:14:09;;;;;;;;;;;5.00;100.00;;;;;;4995434;28;19930;-72
2024/02/02 13:16:36;;;;;;;;;;;5.00;100.00;;;;;;5005106;28;19930;-72
2024/02/02 13:19:07;;;;;;;;;;;5.00;100.00;;;;;;5005673;28;19941;-72
2024/02/02 13:21:42;;;;;;;;;;;4.90;100.00;;;;;;4998822;28;20410;-72
2024/02/02 13:24:19;;;;;;;;;;;4.90;100.00;;;;;;4998897;28;19929;-71
2024/02/02 13:26:50;;;;;;;;;;;5.00;100.00;;;;;;5001773;28;19956;-74
2024/02/02 13:29:25;;;;;;;;;;;5.00;100.00;;;;;;5007760;28;20537;-73
2024/02/02 13:31:51;;;;;;;;;;;5.00;100.00;;;;;;5007659;28;20031;-73
2024/02/02 13:34:18;;;;;;;;;;;5.00;100.00;;;;;;5007463;28;20027;-73
2024/02/02 13:36:46;;;;;;;;;;;5.00;100.00;;;;;;5007346;28;19936;-73
2024/02/02 13:39:18;;;;;;;;;;;5.00;100.00;;;;;;5007617;28;19929;-72
2024/02/02 13:41:46;;;;;;;;;;;5.00;100.00;;;;;;4998234;28;20341;-73
2024/02/02 13:44:16;;;;;;;;;;;5.00;100.00;;;;;;5008309;28;19937;-73
2024/02/02 13:46:44;;;;;;;;;;;5.10;100.00;;;;;;4998819;28;19929;-72
2024/02/02 13:49:21;;;;;;;;;;;5.10;100.00;;;;;;5008383;28;19934;-73
2024/02/02 13:51:49;;;;;;;;;;;5.10;100.00;;;;;;5012798;28;20015;-73
2024/02/02 13:54:16;;;;;;;;;;;5.10;100.00;;;;;;5008533;28;19929;-71
2024/02/02 13:56:46;;;;;;;;;;;5.10;100.00;;;;;;5008099;28;19934;-74
2024/02/02 13:59:19;;;;;;;;;;;5.10;100.00;;;;;;5008597;28;19956;-72
2024/02/02 14:01:46;;;;;;;;;;;5.20;100.00;;;;;;5006722;28;19929;-73
2024/02/02 14:04:21;;;;;;;;;;;5.20;100.00;;;;;;5005132;28;20016;-73
2024/02/02 14:06:48;;;;;;;;;;;5.20;100.00;;;;;;5006443;28;19999;-73
2024/02/02 14:09:20;;;;;;;;;;;5.20;100.00;;;;;;5006860;28;19933;-74
2024/02/02 14:11:47;;;;;;;;;;;5.20;100.00;;;;;;5007619;28;19930;-75
2024/02/02 14:14:14;;;;;;;;;;;5.20;100.00;;;;;;5008283;28;20020;-73
2024/02/02 14:16:41;;;;;;;;;;;5.20;100.00;;;;;;5007859;28;19968;-73
2024/02/02 14:19:08;;;;;;;;;;;5.20;100.00;;;;;;5008377;28;19933;-73
2024/02/02 14:21:36;;;;;;;;;;;5.30;100.00;;;;;;5007755;28;19979;-72
2024/02/02 14:24:14;;;;;;;;;;;5.30;100.00;;;;;;5007859;28;19937;-74
2024/02/02 14:26:48;;;;;;;;;;;5.30;100.00;;;;;;5022317;28;20007;-74
2024/02/02 14:29:15;;;;;;;;;;;5.30;100.00;;;;;;5007408;28;20558;-74
2024/02/02 14:31:41;;;;;;;;;;;5.30;100.00;;;;;;5006553;28;19940;-75
2024/02/02 14:34:09;;;;;;;;;;;5.30;100.00;;;;;;5007698;28;20298;-75